sensor_id;sensor_type;location;lat;lon;timestamp;P1;durP1;ratioP1;P2;durP2;ratioP2
42284;SDS011;27942;47.510;18.966;2022-08-19T00:01:17;2.92;;;1.80;;
42284;SDS011;27942;47.510;18.966;2022-08-19T00:03:42;7.40;;;2.30;;
42284;SDS011;27942;47.510;18.966;2022-08-19T00:06:07;2.80;;;1.80;;
42284;SDS011;27942;47.510;18.966;2022-08-19T00:08:32;3.70;;;2.08;;
42284;SDS011;27942;47.510;18.966;2022-08-19T00:10:58;3.55;;;1.98;;
42284;SDS011;27942;47.510;18.966;2022-08-19T00:13:23;6.22;;;1.83;;
42284;SDS011;27942;47.510;18.966;2022-08-19T00:15:48;3.23;;;2.03;;
42284;SDS011;27942;47.510;18.966;2022-08-19T00:18:13;3.75;;;1.95;;
42284;SDS011;27942;47.510;18.966;2022-08-19T00:20:38;2.50;;;1.75;;
42284;SDS011;27942;47.510;18.966;2022-08-19T00:23:05;6.47;;;2.28;;
42284;SDS011;27942;47.510;18.966;2022-08-19T00:25:30;3.88;;;1.77;;
42284;SDS011;27942;47.510;18.966;2022-08-19T00:27:55;3.07;;;1.63;;
42284;SDS011;27942;47.510;18.966;2022-08-19T00:30:21;3.25;;;2.00;;
42284;SDS011;27942;47.510;18.966;2022-08-19T00:32:46;2.72;;;1.70;;
42284;SDS011;27942;47.510;18.966;2022-08-19T00:35:11;4.72;;;2.22;;
42284;SDS011;27942;47.510;18.966;2022-08-19T00:37:37;2.55;;;2.00;;
42284;SDS011;27942;47.510;18.966;2022-08-19T00:40:04;4.57;;;1.80;;
42284;SDS011;27942;47.510;18.966;2022-08-19T00:42:30;3.67;;;2.28;;
42284;SDS011;27942;47.510;18.966;2022-08-19T00:44:55;3.53;;;2.15;;
42284;SDS011;27942;47.510;18.966;2022-08-19T00:47:20;2.58;;;1.58;;
42284;SDS011;27942;47.510;18.966;2022-08-19T00:49:53;3.80;;;2.10;;
42284;SDS011;27942;47.510;18.966;2022-08-19T00:52:24;3.17;;;1.80;;
42284;SDS011;27942;47.510;18.966;2022-08-19T00:54:50;3.38;;;2.00;;
42284;SDS011;27942;47.510;18.966;2022-08-19T00:57:17;3.28;;;1.77;;
42284;SDS011;27942;47.510;18.966;2022-08-19T00:59:44;2.88;;;1.95;;
42284;SDS011;27942;47.510;18.966;2022-08-19T01:02:11;2.72;;;1.55;;
42284;SDS011;27942;47.510;18.966;2022-08-19T01:04:36;2.95;;;1.98;;
42284;SDS011;27942;47.510;18.966;2022-08-19T01:07:01;2.65;;;1.88;;
42284;SDS011;27942;47.510;18.966;2022-08-19T01:09:27;3.00;;;1.88;;
42284;SDS011;27942;47.510;18.966;2022-08-19T01:11:52;2.83;;;1.65;;
42284;SDS011;27942;47.510;18.966;2022-08-19T01:14:17;3.15;;;2.00;;
42284;SDS011;27942;47.510;18.966;2022-08-19T01:16:43;3.20;;;1.80;;
42284;SDS011;27942;47.510;18.966;2022-08-19T01:19:28;4.40;;;2.15;;
42284;SDS011;27942;47.510;18.966;2022-08-19T01:21:59;3.40;;;1.90;;
42284;SDS011;27942;47.510;18.966;2022-08-19T01:24:26;2.78;;;1.80;;
42284;SDS011;27942;47.510;18.966;2022-08-19T01:26:51;3.22;;;1.70;;
42284;SDS011;27942;47.510;18.966;2022-08-19T01:29:16;4.75;;;1.70;;
42284;SDS011;27942;47.510;18.966;2022-08-19T01:31:41;3.50;;;1.83;;
42284;SDS011;27942;47.510;18.966;2022-08-19T01:34:07;3.63;;;2.10;;
42284;SDS011;27942;47.510;18.966;2022-08-19T01:36:34;2.42;;;1.67;;
42284;SDS011;27942;47.510;18.966;2022-08-19T01:39:00;2.80;;;1.73;;
42284;SDS011;27942;47.510;18.966;2022-08-19T01:41:26;3.03;;;1.90;;
42284;SDS011;27942;47.510;18.966;2022-08-19T01:43:52;3.22;;;2.00;;
42284;SDS011;27942;47.510;18.966;2022-08-19T01:46:17;3.00;;;1.80;;
42284;SDS011;27942;47.510;18.966;2022-08-19T01:48:43;4.30;;;2.15;;
42284;SDS011;27942;47.510;18.966;2022-08-19T01:51:09;3.53;;;2.10;;
42284;SDS011;27942;47.510;18.966;2022-08-19T01:53:35;9.45;;;2.35;;
42284;SDS011;27942;47.510;18.966;2022-08-19T01:56:00;2.58;;;1.85;;
42284;SDS011;27942;47.510;18.966;2022-08-19T01:58:34;2.83;;;1.95;;
42284;SDS011;27942;47.510;18.966;2022-08-19T02:01:02;5.00;;;1.95;;
42284;SDS011;27942;47.510;18.966;2022-08-19T02:03:27;5.05;;;1.98;;
42284;SDS011;27942;47.510;18.966;2022-08-19T02:05:57;3.78;;;1.70;;
42284;SDS011;27942;47.510;18.966;2022-08-19T02:08:24;2.55;;;1.90;;
42284;SDS011;27942;47.510;18.966;2022-08-19T02:10:50;4.63;;;1.83;;
42284;SDS011;27942;47.510;18.966;2022-08-19T02:13:15;3.90;;;1.98;;
42284;SDS011;27942;47.510;18.966;2022-08-19T02:15:40;3.83;;;2.10;;
42284;SDS011;27942;47.510;18.966;2022-08-19T02:18:05;4.88;;;2.15;;
42284;SDS011;27942;47.510;18.966;2022-08-19T02:20:31;3.95;;;1.90;;
42284;SDS011;27942;47.510;18.966;2022-08-19T02:22:56;3.42;;;2.08;;
42284;SDS011;27942;47.510;18.966;2022-08-19T02:25:21;3.60;;;1.95;;
42284;SDS011;27942;47.510;18.966;2022-08-19T02:27:46;3.88;;;1.85;;
42284;SDS011;27942;47.510;18.966;2022-08-19T02:30:13;3.25;;;1.50;;
42284;SDS011;27942;47.510;18.966;2022-08-19T02:32:40;3.00;;;1.77;;
42284;SDS011;27942;47.510;18.966;2022-08-19T02:35:06;4.00;;;2.17;;
42284;SDS011;27942;47.510;18.966;2022-08-19T02:37:32;4.22;;;2.17;;
42284;SDS011;27942;47.510;18.966;2022-08-19T02:40:15;3.90;;;1.98;;
42284;SDS011;27942;47.510;18.966;2022-08-19T02:42:42;3.08;;;1.85;;
42284;SDS011;27942;47.510;18.966;2022-08-19T02:45:08;4.63;;;2.00;;
42284;SDS011;27942;47.510;18.966;2022-08-19T02:47:33;3.92;;;2.33;;
42284;SDS011;27942;47.510;18.966;2022-08-19T02:50:00;3.60;;;1.90;;
42284;SDS011;27942;47.510;18.966;2022-08-19T02:52:25;3.58;;;2.00;;
42284;SDS011;27942;47.510;18.966;2022-08-19T02:54:53;3.10;;;1.90;;
42284;SDS011;27942;47.510;18.966;2022-08-19T02:57:18;4.13;;;2.30;;
42284;SDS011;27942;47.510;18.966;2022-08-19T02:59:43;3.50;;;1.90;;
42284;SDS011;27942;47.510;18.966;2022-08-19T03:02:08;4.25;;;1.92;;
42284;SDS011;27942;47.510;18.966;2022-08-19T03:04:33;3.75;;;2.05;;
42284;SDS011;27942;47.510;18.966;2022-08-19T03:06:59;6.30;;;1.77;;
42284;SDS011;27942;47.510;18.966;2022-08-19T03:09:24;5.85;;;2.30;;
42284;SDS011;27942;47.510;18.966;2022-08-19T03:11:49;3.92;;;2.00;;
42284;SDS011;27942;47.510;18.966;2022-08-19T03:14:15;3.50;;;1.90;;
42284;SDS011;27942;47.510;18.966;2022-08-19T03:16:41;3.85;;;2.00;;
42284;SDS011;27942;47.510;18.966;2022-08-19T03:19:07;5.07;;;2.10;;
42284;SDS011;27942;47.510;18.966;2022-08-19T03:21:32;4.07;;;2.28;;
42284;SDS011;27942;47.510;18.966;2022-08-19T03:23:59;2.25;;;1.63;;
42284;SDS011;27942;47.510;18.966;2022-08-19T03:26:24;3.90;;;1.80;;
42284;SDS011;27942;47.510;18.966;2022-08-19T03:28:49;3.15;;;1.88;;
42284;SDS011;27942;47.510;18.966;2022-08-19T03:31:16;2.85;;;2.10;;
42284;SDS011;27942;47.510;18.966;2022-08-19T03:33:41;4.38;;;2.05;;
42284;SDS011;27942;47.510;18.966;2022-08-19T03:36:08;3.00;;;1.95;;
42284;SDS011;27942;47.510;18.966;2022-08-19T03:38:35;3.80;;;2.30;;
42284;SDS011;27942;47.510;18.966;2022-08-19T03:41:08;3.92;;;2.15;;
42284;SDS011;27942;47.510;18.966;2022-08-19T03:43:35;3.97;;;1.98;;
42284;SDS011;27942;47.510;18.966;2022-08-19T03:46:01;4.90;;;1.90;;
42284;SDS011;27942;47.510;18.966;2022-08-19T03:48:27;5.40;;;2.22;;
42284;SDS011;27942;47.510;18.966;2022-08-19T03:50:52;2.33;;;1.70;;
42284;SDS011;27942;47.510;18.966;2022-08-19T03:53:17;3.92;;;1.98;;
42284;SDS011;27942;47.510;18.966;2022-08-19T03:55:43;4.85;;;2.38;;
42284;SDS011;27942;47.510;18.966;2022-08-19T03:58:08;4.40;;;2.17;;
42284;SDS011;27942;47.510;18.966;2022-08-19T04:00:33;3.60;;;2.15;;
42284;SDS011;27942;47.510;18.966;2022-08-19T04:02:58;4.32;;;2.10;;
42284;SDS011;27942;47.510;18.966;2022-08-19T04:05:24;3.78;;;2.25;;
42284;SDS011;27942;47.510;18.966;2022-08-19T04:07:49;3.80;;;2.25;;
42284;SDS011;27942;47.510;18.966;2022-08-19T04:10:14;5.18;;;2.30;;
42284;SDS011;27942;47.510;18.966;2022-08-19T04:12:39;2.97;;;1.75;;
42284;SDS011;27942;47.510;18.966;2022-08-19T04:15:04;2.75;;;1.73;;
42284;SDS011;27942;47.510;18.966;2022-08-19T04:17:31;3.63;;;1.80;;
42284;SDS011;27942;47.510;18.966;2022-08-19T04:19:56;4.07;;;2.20;;
42284;SDS011;27942;47.510;18.966;2022-08-19T04:22:21;2.83;;;1.98;;
42284;SDS011;27942;47.510;18.966;2022-08-19T04:24:47;6.65;;;2.22;;
42284;SDS011;27942;47.510;18.966;2022-08-19T04:27:12;3.58;;;2.03;;
42284;SDS011;27942;47.510;18.966;2022-08-19T04:29:37;5.13;;;1.92;;
42284;SDS011;27942;47.510;18.966;2022-08-19T04:32:04;4.90;;;2.42;;
42284;SDS011;27942;47.510;18.966;2022-08-19T04:34:30;4.47;;;2.20;;
42284;SDS011;27942;47.510;18.966;2022-08-19T04:36:56;4.32;;;2.25;;
42284;SDS011;27942;47.510;18.966;2022-08-19T04:39:24;3.47;;;2.08;;
42284;SDS011;27942;47.510;18.966;2022-08-19T04:42:09;2.60;;;1.70;;
42284;SDS011;27942;47.510;18.966;2022-08-19T04:44:53;3.53;;;2.00;;
42284;SDS011;27942;47.510;18.966;2022-08-19T04:47:19;4.70;;;2.25;;
42284;SDS011;27942;47.510;18.966;2022-08-19T04:49:44;3.45;;;2.15;;
42284;SDS011;27942;47.510;18.966;2022-08-19T04:52:09;2.95;;;2.10;;
42284;SDS011;27942;47.510;18.966;2022-08-19T04:54:34;3.53;;;2.10;;
42284;SDS011;27942;47.510;18.966;2022-08-19T04:56:59;3.70;;;2.27;;
42284;SDS011;27942;47.510;18.966;2022-08-19T04:59:25;3.28;;;1.75;;
42284;SDS011;27942;47.510;18.966;2022-08-19T05:01:50;4.82;;;2.00;;
42284;SDS011;27942;47.510;18.966;2022-08-19T05:04:16;3.35;;;2.15;;
42284;SDS011;27942;47.510;18.966;2022-08-19T05:06:42;3.78;;;2.05;;
42284;SDS011;27942;47.510;18.966;2022-08-19T05:09:08;4.68;;;2.17;;
42284;SDS011;27942;47.510;18.966;2022-08-19T05:11:34;4.32;;;1.85;;
42284;SDS011;27942;47.510;18.966;2022-08-19T05:14:00;4.87;;;2.03;;
42284;SDS011;27942;47.510;18.966;2022-08-19T05:16:27;4.45;;;2.28;;
42284;SDS011;27942;47.510;18.966;2022-08-19T05:18:52;4.20;;;2.05;;
42284;SDS011;27942;47.510;18.966;2022-08-19T05:21:39;5.70;;;1.90;;
42284;SDS011;27942;47.510;18.966;2022-08-19T05:24:23;3.72;;;2.00;;
42284;SDS011;27942;47.510;18.966;2022-08-19T05:26:49;3.97;;;2.10;;
42284;SDS011;27942;47.510;18.966;2022-08-19T05:29:15;3.55;;;1.90;;
42284;SDS011;27942;47.510;18.966;2022-08-19T05:31:40;3.42;;;1.98;;
42284;SDS011;27942;47.510;18.966;2022-08-19T05:34:06;3.75;;;1.85;;
42284;SDS011;27942;47.510;18.966;2022-08-19T05:36:35;3.55;;;2.00;;
42284;SDS011;27942;47.510;18.966;2022-08-19T05:39:03;2.92;;;1.65;;
42284;SDS011;27942;47.510;18.966;2022-08-19T05:41:29;3.35;;;1.70;;
42284;SDS011;27942;47.510;18.966;2022-08-19T05:43:58;3.00;;;2.10;;
42284;SDS011;27942;47.510;18.966;2022-08-19T05:46:25;3.28;;;2.10;;
42284;SDS011;27942;47.510;18.966;2022-08-19T05:48:50;3.08;;;1.90;;
42284;SDS011;27942;47.510;18.966;2022-08-19T05:51:16;2.60;;;1.65;;
42284;SDS011;27942;47.510;18.966;2022-08-19T05:53:41;3.08;;;1.75;;
42284;SDS011;27942;47.510;18.966;2022-08-19T05:56:07;2.33;;;1.55;;
42284;SDS011;27942;47.510;18.966;2022-08-19T05:58:33;5.03;;;2.15;;
42284;SDS011;27942;47.510;18.966;2022-08-19T06:00:59;2.90;;;1.52;;
42284;SDS011;27942;47.510;18.966;2022-08-19T06:03:29;2.55;;;1.67;;
42284;SDS011;27942;47.510;18.966;2022-08-19T06:05:54;3.22;;;1.67;;
42284;SDS011;27942;47.510;18.966;2022-08-19T06:08:19;2.50;;;2.00;;
42284;SDS011;27942;47.510;18.966;2022-08-19T06:10:45;4.18;;;1.60;;
42284;SDS011;27942;47.510;18.966;2022-08-19T06:13:10;2.58;;;1.63;;
42284;SDS011;27942;47.510;18.966;2022-08-19T06:15:35;3.25;;;2.00;;
42284;SDS011;27942;47.510;18.966;2022-08-19T06:18:00;2.65;;;1.85;;
42284;SDS011;27942;47.510;18.966;2022-08-19T06:20:26;3.15;;;1.70;;
42284;SDS011;27942;47.510;18.966;2022-08-19T06:22:51;3.30;;;1.48;;
42284;SDS011;27942;47.510;18.966;2022-08-19T06:25:16;4.82;;;2.00;;
42284;SDS011;27942;47.510;18.966;2022-08-19T06:27:42;3.17;;;1.90;;
42284;SDS011;27942;47.510;18.966;2022-08-19T06:30:08;2.65;;;1.55;;
42284;SDS011;27942;47.510;18.966;2022-08-19T06:32:33;2.67;;;1.80;;
42284;SDS011;27942;47.510;18.966;2022-08-19T06:34:58;3.08;;;1.63;;
42284;SDS011;27942;47.510;18.966;2022-08-19T06:37:23;2.45;;;1.70;;
42284;SDS011;27942;47.510;18.966;2022-08-19T06:39:49;3.17;;;1.50;;
42284;SDS011;27942;47.510;18.966;2022-08-19T06:42:14;3.55;;;1.90;;
42284;SDS011;27942;47.510;18.966;2022-08-19T06:44:44;5.35;;;1.73;;
42284;SDS011;27942;47.510;18.966;2022-08-19T06:47:10;4.05;;;2.03;;
42284;SDS011;27942;47.510;18.966;2022-08-19T06:49:36;3.78;;;1.77;;
42284;SDS011;27942;47.510;18.966;2022-08-19T06:52:01;2.22;;;1.50;;
42284;SDS011;27942;47.510;18.966;2022-08-19T06:54:27;3.15;;;1.67;;
42284;SDS011;27942;47.510;18.966;2022-08-19T06:56:56;3.50;;;1.52;;
42284;SDS011;27942;47.510;18.966;2022-08-19T06:59:22;3.42;;;1.88;;
42284;SDS011;27942;47.510;18.966;2022-08-19T07:01:53;3.08;;;1.80;;
42284;SDS011;27942;47.510;18.966;2022-08-19T07:04:20;2.60;;;1.60;;
42284;SDS011;27942;47.510;18.966;2022-08-19T07:06:45;4.47;;;2.20;;
42284;SDS011;27942;47.510;18.966;2022-08-19T07:09:12;2.88;;;1.70;;
42284;SDS011;27942;47.510;18.966;2022-08-19T07:11:37;2.95;;;1.77;;
42284;SDS011;27942;47.510;18.966;2022-08-19T07:14:03;2.67;;;1.50;;
42284;SDS011;27942;47.510;18.966;2022-08-19T07:16:28;2.70;;;1.65;;
42284;SDS011;27942;47.510;18.966;2022-08-19T07:18:54;3.75;;;2.08;;
42284;SDS011;27942;47.510;18.966;2022-08-19T07:21:22;2.72;;;1.90;;
42284;SDS011;27942;47.510;18.966;2022-08-19T07:23:48;3.78;;;1.60;;
42284;SDS011;27942;47.510;18.966;2022-08-19T07:26:17;1.80;;;1.30;;
42284;SDS011;27942;47.510;18.966;2022-08-19T07:28:44;2.65;;;1.58;;
42284;SDS011;27942;47.510;18.966;2022-08-19T07:31:10;2.47;;;1.30;;
42284;SDS011;27942;47.510;18.966;2022-08-19T07:33:37;3.13;;;2.00;;
42284;SDS011;27942;47.510;18.966;2022-08-19T07:36:06;3.72;;;1.50;;
42284;SDS011;27942;47.510;18.966;2022-08-19T07:38:32;2.17;;;1.38;;
42284;SDS011;27942;47.510;18.966;2022-08-19T07:40:58;2.85;;;1.77;;
42284;SDS011;27942;47.510;18.966;2022-08-19T07:43:23;3.22;;;1.67;;
42284;SDS011;27942;47.510;18.966;2022-08-19T07:45:51;4.53;;;1.52;;
42284;SDS011;27942;47.510;18.966;2022-08-19T07:48:17;5.60;;;1.23;;
42284;SDS011;27942;47.510;18.966;2022-08-19T07:50:43;4.03;;;1.95;;
42284;SDS011;27942;47.510;18.966;2022-08-19T07:53:08;2.75;;;1.80;;
42284;SDS011;27942;47.510;18.966;2022-08-19T07:55:33;3.25;;;1.58;;
42284;SDS011;27942;47.510;18.966;2022-08-19T07:57:59;2.45;;;1.40;;
42284;SDS011;27942;47.510;18.966;2022-08-19T08:00:24;2.17;;;1.38;;
42284;SDS011;27942;47.510;18.966;2022-08-19T08:02:50;3.00;;;1.80;;
42284;SDS011;27942;47.510;18.966;2022-08-19T08:05:15;3.78;;;1.63;;
42284;SDS011;27942;47.510;18.966;2022-08-19T08:07:58;4.00;;;1.80;;
42284;SDS011;27942;47.510;18.966;2022-08-19T08:10:42;3.13;;;1.95;;
42284;SDS011;27942;47.510;18.966;2022-08-19T08:13:08;2.80;;;1.63;;
42284;SDS011;27942;47.510;18.966;2022-08-19T08:15:33;2.72;;;1.67;;
42284;SDS011;27942;47.510;18.966;2022-08-19T08:17:58;2.28;;;1.55;;
42284;SDS011;27942;47.510;18.966;2022-08-19T08:20:24;3.17;;;1.55;;
42284;SDS011;27942;47.510;18.966;2022-08-19T08:22:49;3.10;;;1.80;;
42284;SDS011;27942;47.510;18.966;2022-08-19T08:25:34;4.13;;;1.80;;
42284;SDS011;27942;47.510;18.966;2022-08-19T08:28:00;2.50;;;1.80;;
42284;SDS011;27942;47.510;18.966;2022-08-19T08:30:26;3.13;;;1.63;;
42284;SDS011;27942;47.510;18.966;2022-08-19T08:32:52;2.20;;;1.40;;
42284;SDS011;27942;47.510;18.966;2022-08-19T08:35:19;4.00;;;1.63;;
42284;SDS011;27942;47.510;18.966;2022-08-19T08:37:45;3.03;;;1.63;;
42284;SDS011;27942;47.510;18.966;2022-08-19T08:42:58;3.30;;;1.73;;
42284;SDS011;27942;47.510;18.966;2022-08-19T08:45:27;1.80;;;1.20;;
42284;SDS011;27942;47.510;18.966;2022-08-19T08:47:53;3.72;;;1.88;;
42284;SDS011;27942;47.510;18.966;2022-08-19T08:50:22;3.33;;;1.58;;
42284;SDS011;27942;47.510;18.966;2022-08-19T08:52:49;2.15;;;1.30;;
42284;SDS011;27942;47.510;18.966;2022-08-19T08:55:18;3.03;;;1.63;;
42284;SDS011;27942;47.510;18.966;2022-08-19T09:02:37;3.33;;;1.67;;
42284;SDS011;27942;47.510;18.966;2022-08-19T09:05:03;2.72;;;1.42;;
42284;SDS011;27942;47.510;18.966;2022-08-19T09:10:04;2.30;;;1.48;;
42284;SDS011;27942;47.510;18.966;2022-08-19T09:12:39;2.58;;;1.52;;
42284;SDS011;27942;47.510;18.966;2022-08-19T09:15:07;4.93;;;1.80;;
42284;SDS011;27942;47.510;18.966;2022-08-19T09:17:34;2.60;;;1.50;;
42284;SDS011;27942;47.510;18.966;2022-08-19T09:22:35;2.20;;;1.40;;
42284;SDS011;27942;47.510;18.966;2022-08-19T09:25:00;2.10;;;1.40;;
42284;SDS011;27942;47.510;18.966;2022-08-19T09:27:26;2.22;;;1.55;;
42284;SDS011;27942;47.510;18.966;2022-08-19T09:29:52;1.83;;;1.20;;
42284;SDS011;27942;47.510;18.966;2022-08-19T09:32:18;2.55;;;1.52;;
42284;SDS011;27942;47.510;18.966;2022-08-19T09:34:44;2.42;;;1.35;;
42284;SDS011;27942;47.510;18.966;2022-08-19T09:37:10;1.77;;;1.17;;
42284;SDS011;27942;47.510;18.966;2022-08-19T09:39:35;3.75;;;1.60;;
42284;SDS011;27942;47.510;18.966;2022-08-19T09:42:00;3.33;;;1.83;;
42284;SDS011;27942;47.510;18.966;2022-08-19T09:44:25;3.47;;;1.65;;
42284;SDS011;27942;47.510;18.966;2022-08-19T09:46:51;2.45;;;1.40;;
42284;SDS011;27942;47.510;18.966;2022-08-19T09:49:17;2.35;;;1.40;;
42284;SDS011;27942;47.510;18.966;2022-08-19T09:51:42;2.63;;;1.42;;
42284;SDS011;27942;47.510;18.966;2022-08-19T09:54:07;3.87;;;1.80;;
42284;SDS011;27942;47.510;18.966;2022-08-19T09:56:33;4.22;;;2.13;;
42284;SDS011;27942;47.510;18.966;2022-08-19T09:58:58;2.05;;;1.40;;
42284;SDS011;27942;47.510;18.966;2022-08-19T10:01:25;3.65;;;1.60;;
42284;SDS011;27942;47.510;18.966;2022-08-19T10:03:53;1.80;;;1.10;;
42284;SDS011;27942;47.510;18.966;2022-08-19T10:06:19;1.80;;;1.30;;
42284;SDS011;27942;47.510;18.966;2022-08-19T10:08:45;3.40;;;1.45;;
42284;SDS011;27942;47.510;18.966;2022-08-19T10:11:10;3.63;;;1.52;;
42284;SDS011;27942;47.510;18.966;2022-08-19T10:13:36;2.05;;;1.20;;
42284;SDS011;27942;47.510;18.966;2022-08-19T10:16:03;2.08;;;1.30;;
42284;SDS011;27942;47.510;18.966;2022-08-19T10:18:28;2.38;;;1.38;;
42284;SDS011;27942;47.510;18.966;2022-08-19T10:21:01;2.77;;;1.33;;
42284;SDS011;27942;47.510;18.966;2022-08-19T10:23:27;1.95;;;1.23;;
42284;SDS011;27942;47.510;18.966;2022-08-19T10:25:54;2.05;;;1.40;;
42284;SDS011;27942;47.510;18.966;2022-08-19T10:28:19;2.07;;;1.40;;
42284;SDS011;27942;47.510;18.966;2022-08-19T10:30:45;2.63;;;1.50;;
42284;SDS011;27942;47.510;18.966;2022-08-19T10:33:10;3.22;;;1.70;;
42284;SDS011;27942;47.510;18.966;2022-08-19T10:35:35;2.17;;;1.30;;
42284;SDS011;27942;47.510;18.966;2022-08-19T10:38:01;3.47;;;1.40;;
42284;SDS011;27942;47.510;18.966;2022-08-19T10:40:27;1.23;;;0.85;;
42284;SDS011;27942;47.510;18.966;2022-08-19T10:42:53;2.35;;;1.17;;
42284;SDS011;27942;47.510;18.966;2022-08-19T10:45:19;2.72;;;1.50;;
42284;SDS011;27942;47.510;18.966;2022-08-19T10:47:47;2.28;;;1.20;;
42284;SDS011;27942;47.510;18.966;2022-08-19T10:50:12;1.63;;;1.23;;
42284;SDS011;27942;47.510;18.966;2022-08-19T10:52:55;2.25;;;1.73;;
42284;SDS011;27942;47.510;18.966;2022-08-19T10:55:22;3.33;;;1.40;;
42284;SDS011;27942;47.510;18.966;2022-08-19T10:58:10;1.30;;;1.08;;
42284;SDS011;27942;47.510;18.966;2022-08-19T11:00:35;2.30;;;1.50;;
42284;SDS011;27942;47.510;18.966;2022-08-19T11:03:01;2.33;;;1.27;;
42284;SDS011;27942;47.510;18.966;2022-08-19T11:05:26;2.17;;;1.40;;
42284;SDS011;27942;47.510;18.966;2022-08-19T11:07:52;3.03;;;1.50;;
42284;SDS011;27942;47.510;18.966;2022-08-19T11:10:17;2.15;;;1.30;;
42284;SDS011;27942;47.510;18.966;2022-08-19T11:12:44;1.65;;;1.10;;
42284;SDS011;27942;47.510;18.966;2022-08-19T11:15:10;2.05;;;1.13;;
42284;SDS011;27942;47.510;18.966;2022-08-19T11:17:36;2.22;;;1.33;;
42284;SDS011;27942;47.510;18.966;2022-08-19T11:20:05;2.67;;;1.55;;
42284;SDS011;27942;47.510;18.966;2022-08-19T11:22:31;2.55;;;1.30;;
42284;SDS011;27942;47.510;18.966;2022-08-19T11:24:56;3.38;;;1.95;;
42284;SDS011;27942;47.510;18.966;2022-08-19T11:27:21;2.67;;;1.85;;
42284;SDS011;27942;47.510;18.966;2022-08-19T11:29:46;2.53;;;1.30;;
42284;SDS011;27942;47.510;18.966;2022-08-19T11:32:12;2.17;;;1.27;;
42284;SDS011;27942;47.510;18.966;2022-08-19T11:34:38;3.45;;;1.60;;
42284;SDS011;27942;47.510;18.966;2022-08-19T11:37:04;7.35;;;1.95;;
42284;SDS011;27942;47.510;18.966;2022-08-19T11:39:31;3.87;;;1.80;;
42284;SDS011;27942;47.510;18.966;2022-08-19T11:41:57;4.75;;;1.88;;
42284;SDS011;27942;47.510;18.966;2022-08-19T11:44:22;2.63;;;1.83;;
42284;SDS011;27942;47.510;18.966;2022-08-19T11:46:48;2.17;;;1.42;;
42284;SDS011;27942;47.510;18.966;2022-08-19T11:49:14;2.47;;;1.60;;
42284;SDS011;27942;47.510;18.966;2022-08-19T11:51:39;3.22;;;1.70;;
42284;SDS011;27942;47.510;18.966;2022-08-19T11:54:06;2.60;;;1.65;;
42284;SDS011;27942;47.510;18.966;2022-08-19T11:56:32;4.22;;;1.85;;
42284;SDS011;27942;47.510;18.966;2022-08-19T11:58:57;3.00;;;1.50;;
42284;SDS011;27942;47.510;18.966;2022-08-19T12:01:23;1.98;;;1.30;;
42284;SDS011;27942;47.510;18.966;2022-08-19T12:03:49;1.55;;;1.23;;
42284;SDS011;27942;47.510;18.966;2022-08-19T12:06:15;3.40;;;1.38;;
42284;SDS011;27942;47.510;18.966;2022-08-19T12:08:41;1.70;;;1.30;;
42284;SDS011;27942;47.510;18.966;2022-08-19T12:11:07;4.37;;;1.97;;
42284;SDS011;27942;47.510;18.966;2022-08-19T12:13:33;4.15;;;2.22;;
42284;SDS011;27942;47.510;18.966;2022-08-19T12:15:58;3.67;;;2.30;;
42284;SDS011;27942;47.510;18.966;2022-08-19T12:18:24;3.30;;;2.47;;
42284;SDS011;27942;47.510;18.966;2022-08-19T12:20:50;4.65;;;2.47;;
42284;SDS011;27942;47.510;18.966;2022-08-19T12:23:15;4.68;;;2.17;;
42284;SDS011;27942;47.510;18.966;2022-08-19T12:25:45;3.83;;;2.65;;
42284;SDS011;27942;47.510;18.966;2022-08-19T12:28:20;5.38;;;3.70;;
42284;SDS011;27942;47.510;18.966;2022-08-19T12:30:45;4.95;;;3.30;;
42284;SDS011;27942;47.510;18.966;2022-08-19T12:33:11;4.25;;;2.53;;
42284;SDS011;27942;47.510;18.966;2022-08-19T12:35:42;5.70;;;2.80;;
42284;SDS011;27942;47.510;18.966;2022-08-19T12:38:07;5.07;;;2.75;;
42284;SDS011;27942;47.510;18.966;2022-08-19T12:40:33;3.33;;;2.22;;
42284;SDS011;27942;47.510;18.966;2022-08-19T12:42:58;4.43;;;2.30;;
42284;SDS011;27942;47.510;18.966;2022-08-19T12:45:24;4.38;;;2.28;;
42284;SDS011;27942;47.510;18.966;2022-08-19T12:47:49;4.18;;;2.33;;
42284;SDS011;27942;47.510;18.966;2022-08-19T12:50:14;6.30;;;2.60;;
42284;SDS011;27942;47.510;18.966;2022-08-19T12:52:40;4.07;;;2.50;;
42284;SDS011;27942;47.510;18.966;2022-08-19T12:55:07;5.15;;;2.63;;
42284;SDS011;27942;47.510;18.966;2022-08-19T12:57:33;4.63;;;2.47;;
42284;SDS011;27942;47.510;18.966;2022-08-19T13:00:21;5.90;;;2.60;;
42284;SDS011;27942;47.510;18.966;2022-08-19T13:02:46;3.63;;;2.17;;
42284;SDS011;27942;47.510;18.966;2022-08-19T13:05:13;3.65;;;2.28;;
42284;SDS011;27942;47.510;18.966;2022-08-19T13:07:39;2.85;;;2.10;;
42284;SDS011;27942;47.510;18.966;2022-08-19T13:10:05;3.95;;;2.20;;
42284;SDS011;27942;47.510;18.966;2022-08-19T13:12:31;4.60;;;2.90;;
42284;SDS011;27942;47.510;18.966;2022-08-19T13:14:56;3.83;;;2.37;;
42284;SDS011;27942;47.510;18.966;2022-08-19T13:17:21;4.95;;;2.20;;
42284;SDS011;27942;47.510;18.966;2022-08-19T13:19:47;3.83;;;2.22;;
42284;SDS011;27942;47.510;18.966;2022-08-19T13:22:13;1.95;;;1.38;;
42284;SDS011;27942;47.510;18.966;2022-08-19T13:24:38;4.20;;;2.03;;
42284;SDS011;27942;47.510;18.966;2022-08-19T13:27:04;2.38;;;1.35;;
42284;SDS011;27942;47.510;18.966;2022-08-19T13:29:29;3.38;;;1.60;;
42284;SDS011;27942;47.510;18.966;2022-08-19T13:32:13;3.63;;;1.70;;
42284;SDS011;27942;47.510;18.966;2022-08-19T13:34:57;1.95;;;1.23;;
42284;SDS011;27942;47.510;18.966;2022-08-19T13:37:22;1.92;;;1.10;;
42284;SDS011;27942;47.510;18.966;2022-08-19T13:40:06;2.67;;;1.20;;
42284;SDS011;27942;47.510;18.966;2022-08-19T13:42:32;1.63;;;1.17;;
42284;SDS011;27942;47.510;18.966;2022-08-19T13:44:57;3.38;;;1.35;;
42284;SDS011;27942;47.510;18.966;2022-08-19T13:47:23;2.03;;;1.10;;
42284;SDS011;27942;47.510;18.966;2022-08-19T13:49:48;2.80;;;1.20;;
42284;SDS011;27942;47.510;18.966;2022-08-19T13:52:14;2.05;;;1.27;;
42284;SDS011;27942;47.510;18.966;2022-08-19T13:54:40;2.13;;;1.10;;
42284;SDS011;27942;47.510;18.966;2022-08-19T13:57:05;2.30;;;1.17;;
42284;SDS011;27942;47.510;18.966;2022-08-19T13:59:30;4.30;;;1.70;;
42284;SDS011;27942;47.510;18.966;2022-08-19T14:01:59;3.70;;;1.53;;
42284;SDS011;27942;47.510;18.966;2022-08-19T14:04:24;3.53;;;1.10;;
42284;SDS011;27942;47.510;18.966;2022-08-19T14:06:49;2.75;;;0.95;;
42284;SDS011;27942;47.510;18.966;2022-08-19T14:09:14;3.73;;;1.23;;
42284;SDS011;27942;47.510;18.966;2022-08-19T14:11:40;2.05;;;0.93;;
42284;SDS011;27942;47.510;18.966;2022-08-19T14:14:05;1.65;;;0.90;;
42284;SDS011;27942;47.510;18.966;2022-08-19T14:16:30;1.98;;;1.05;;
42284;SDS011;27942;47.510;18.966;2022-08-19T14:18:55;1.70;;;0.88;;
42284;SDS011;27942;47.510;18.966;2022-08-19T14:21:21;1.83;;;0.90;;
42284;SDS011;27942;47.510;18.966;2022-08-19T14:23:47;2.65;;;1.00;;
42284;SDS011;27942;47.510;18.966;2022-08-19T14:26:13;2.03;;;1.27;;
42284;SDS011;27942;47.510;18.966;2022-08-19T14:28:39;1.95;;;1.00;;
42284;SDS011;27942;47.510;18.966;2022-08-19T14:31:10;1.48;;;1.00;;
42284;SDS011;27942;47.510;18.966;2022-08-19T14:33:36;2.90;;;0.80;;
42284;SDS011;27942;47.510;18.966;2022-08-19T14:36:02;0.98;;;0.75;;
42284;SDS011;27942;47.510;18.966;2022-08-19T14:38:27;2.42;;;0.80;;
42284;SDS011;27942;47.510;18.966;2022-08-19T14:40:56;2.15;;;1.08;;
42284;SDS011;27942;47.510;18.966;2022-08-19T14:43:22;0.90;;;0.55;;